createdAt,value
2022-10-12T00:01:05.611Z,73.43
2022-10-12T00:03:33.841Z,72.71
2022-10-12T00:06:05.377Z,72.12
2022-10-12T00:08:34.882Z,72.42
2022-10-12T00:11:03.305Z,72.42
2022-10-12T00:13:31.898Z,72.81
2022-10-12T00:16:06.149Z,72.52
2022-10-12T00:18:35.583Z,72.69
2022-10-12T00:21:05.290Z,72.63
2022-10-12T00:23:35.131Z,72.93
2022-10-12T00:26:05.381Z,72.57
2022-10-12T00:28:34.707Z,72.86
2022-10-12T00:31:08.419Z,73.42
2022-10-12T00:33:37.671Z,73.92
2022-10-12T00:36:15.344Z,73.66
2022-10-12T00:38:43.964Z,74.35
2022-10-12T00:41:13.724Z,74.84
2022-10-12T00:43:47.755Z,75.38
2022-10-12T00:46:21.318Z,75.10
2022-10-12T00:48:54.480Z,75.20
2022-10-12T00:51:23.994Z,74.67
2022-10-12T00:53:57.534Z,74.95
2022-10-12T00:56:29.430Z,74.99
2022-10-12T00:59:02.992Z,74.36
2022-10-12T01:01:35.983Z,74.23
2022-10-12T01:04:04.994Z,74.11
2022-10-12T01:06:34.355Z,73.92
2022-10-12T01:09:03.660Z,74.67
2022-10-12T01:11:31.876Z,74.75
2022-10-12T01:14:00.470Z,74.91
2022-10-12T01:16:37.737Z,74.82
2022-10-12T01:19:25.387Z,74.75
2022-10-12T01:22:02.172Z,74.02
2022-10-12T01:24:47.210Z,73.61
2022-10-12T01:27:45.174Z,73.37
2022-10-12T01:30:20.371Z,73.80
2022-10-12T01:33:09.815Z,73.82
2022-10-12T01:35:45.244Z,73.46
2022-10-12T01:38:37.611Z,72.96
2022-10-12T01:41:12.110Z,72.61
2022-10-12T01:43:43.988Z,73.38
2022-10-12T01:46:42.662Z,74.45
2022-10-12T01:49:11.931Z,74.65
2022-10-12T01:52:01.599Z,74.23
2022-10-12T01:54:45.670Z,74.74
2022-10-12T01:57:20.714Z,74.37
2022-10-12T02:00:00.340Z,74.46
2022-10-12T02:02:35.941Z,74.42
2022-10-12T02:05:11.649Z,74.41
2022-10-12T02:07:45.881Z,74.41
2022-10-12T02:10:22.430Z,74.47
2022-10-12T02:12:52.615Z,74.52
2022-10-12T02:15:23.035Z,74.21
2022-10-12T02:17:53.936Z,74.27
2022-10-12T02:20:23.830Z,74.38
2022-10-12T02:22:53.264Z,74.91
2022-10-12T02:25:24.874Z,74.63
2022-10-12T02:28:01.120Z,74.35
2022-10-12T02:30:29.594Z,74.39
2022-10-12T02:33:04.793Z,74.64
2022-10-12T02:35:39.496Z,74.99
2022-10-12T02:38:14.608Z,74.74
2022-10-12T02:40:47.490Z,74.09
2022-10-12T02:43:22.490Z,73.67
2022-10-12T02:45:51.874Z,73.90
2022-10-12T02:48:24.171Z,74.17
2022-10-12T02:50:57.044Z,74.36
2022-10-12T02:53:27.155Z,74.51
2022-10-12T02:56:02.730Z,74.79
2022-10-12T02:58:30.963Z,74.60
2022-10-12T03:00:59.379Z,75.03
2022-10-12T03:03:29.131Z,74.94
2022-10-12T03:05:57.354Z,75.18
2022-10-12T03:08:25.627Z,74.97
2022-10-12T03:10:54.139Z,75.11
2022-10-12T03:13:22.363Z,75.33
2022-10-12T03:15:50.561Z,75.57
2022-10-12T03:18:19.045Z,75.27
2022-10-12T03:20:50.638Z,74.95
2022-10-12T03:23:18.870Z,74.47
2022-10-12T03:25:47.086Z,74.66
2022-10-12T03:28:15.482Z,75.13
2022-10-12T03:30:44.353Z,74.92
2022-10-12T03:33:12.894Z,74.85
2022-10-12T03:35:41.528Z,75.16
2022-10-12T03:38:11.163Z,75.31
2022-10-12T03:40:39.460Z,74.81
2022-10-12T03:43:07.934Z,74.69
2022-10-12T03:45:36.733Z,75.04
2022-10-12T03:48:06.023Z,75.32
2022-10-12T03:50:35.818Z,75.51
2022-10-12T03:53:05.928Z,75.97
2022-10-12T03:55:35.548Z,75.57
2022-10-12T03:58:03.820Z,74.89
2022-10-12T04:00:32.195Z,75.03
2022-10-12T04:03:02.111Z,75.67
2022-10-12T04:05:30.591Z,76.57
2022-10-12T04:07:59.020Z,78.08
2022-10-12T04:10:27.578Z,78.30
2022-10-12T04:12:58.849Z,77.55
2022-10-12T04:15:27.031Z,76.67
2022-10-12T04:17:55.466Z,77.49
2022-10-12T04:20:23.658Z,78.11
2022-10-12T04:22:51.854Z,78.00
2022-10-12T04:25:20.109Z,78.33
2022-10-12T04:27:48.295Z,78.86
2022-10-12T04:30:18.674Z,79.16
2022-10-12T04:32:46.956Z,79.00
2022-10-12T04:35:15.334Z,79.56
2022-10-12T04:37:43.637Z,79.94
2022-10-12T04:40:12.384Z,80.39
2022-10-12T04:42:40.603Z,80.83
2022-10-12T04:45:10.214Z,80.42
2022-10-12T04:47:40.179Z,79.84
2022-10-12T04:50:09.710Z,79.33
2022-10-12T04:52:37.881Z,79.00
2022-10-12T04:55:07.769Z,79.01
2022-10-12T04:57:36.238Z,78.81
2022-10-12T05:00:05.733Z,79.09
2022-10-12T05:02:34.277Z,79.47
2022-10-12T05:05:03.861Z,79.34
2022-10-12T05:07:32.135Z,78.39
2022-10-12T05:10:00.312Z,78.14
2022-10-12T05:12:28.695Z,77.84
2022-10-12T05:14:56.896Z,77.50
2022-10-12T05:17:25.139Z,77.63
2022-10-12T05:19:53.395Z,77.86
2022-10-12T05:22:22.957Z,77.99
2022-10-12T05:24:53.836Z,78.05
2022-10-12T05:27:22.385Z,78.23
2022-10-12T05:29:50.622Z,77.32
2022-10-12T05:32:18.852Z,76.60
2022-10-12T05:34:47.045Z,76.87
2022-10-12T05:37:15.565Z,76.59
2022-10-12T05:39:45.902Z,77.08
2022-10-12T05:42:14.230Z,78.20
2022-10-12T05:44:42.403Z,77.92
2022-10-12T05:47:10.841Z,77.62
2022-10-12T05:49:39.075Z,77.76
2022-10-12T05:52:07.358Z,78.72
2022-10-12T05:54:35.560Z,78.61
2022-10-12T05:57:05.294Z,78.99
2022-10-12T05:59:33.608Z,79.09
2022-10-12T06:02:01.999Z,78.44
2022-10-12T06:04:30.251Z,78.42
2022-10-12T06:06:58.417Z,77.79
2022-10-12T06:09:26.695Z,77.06
2022-10-12T06:11:55.505Z,76.56
2022-10-12T06:14:25.180Z,76.59
2022-10-12T06:16:54.569Z,76.80
2022-10-12T06:19:23.117Z,76.92
2022-10-12T06:21:51.364Z,76.71
2022-10-12T06:24:19.731Z,76.87
2022-10-12T06:26:47.942Z,76.13
2022-10-12T06:29:16.260Z,76.12
2022-10-12T06:31:50.610Z,76.14
2022-10-12T06:34:20.078Z,76.39
2022-10-12T06:36:48.380Z,76.34
2022-10-12T06:39:16.736Z,76.51
2022-10-12T06:41:45.032Z,76.52
2022-10-12T06:44:13.303Z,76.57
2022-10-12T06:46:41.513Z,76.24
2022-10-12T06:49:11.758Z,76.28
2022-10-12T06:51:40.016Z,76.23
2022-10-12T06:54:08.237Z,76.24
2022-10-12T06:56:38.221Z,76.32
2022-10-12T06:59:06.611Z,77.05
2022-10-12T07:01:34.953Z,77.70
2022-10-12T07:04:03.230Z,77.14
2022-10-12T07:06:34.001Z,76.46
2022-10-12T07:09:02.229Z,76.22
2022-10-12T07:11:30.467Z,76.99
2022-10-12T07:13:59.151Z,76.46
2022-10-12T07:16:27.418Z,76.00
2022-10-12T07:18:55.728Z,75.41
2022-10-12T07:21:23.976Z,75.07
2022-10-12T07:23:54.165Z,74.50
2022-10-12T07:26:22.384Z,75.17
2022-10-12T07:28:50.691Z,74.95
2022-10-12T07:31:19.303Z,73.47
2022-10-12T07:33:47.615Z,72.70
2022-10-12T07:36:20.898Z,70.93
2022-10-12T07:38:50.264Z,69.32
2022-10-12T07:41:20.611Z,68.55
2022-10-12T07:43:48.931Z,67.95
2022-10-12T07:46:17.140Z,66.86
2022-10-12T07:48:50.074Z,66.47
2022-10-12T07:51:19.306Z,65.32
2022-10-12T07:53:47.608Z,64.09
2022-10-12T07:56:16.277Z,62.89
2022-10-12T07:58:50.526Z,61.06
2022-10-12T08:01:20.259Z,59.75
2022-10-12T08:03:49.399Z,58.91
2022-10-12T08:06:20.889Z,58.83
2022-10-12T08:08:49.639Z,59.59
2022-10-12T08:11:19.189Z,59.97
2022-10-12T08:13:49.200Z,58.97
2022-10-12T08:16:20.392Z,59.71
2022-10-12T08:18:49.046Z,59.21
2022-10-12T08:21:19.067Z,58.89
2022-10-12T08:23:47.987Z,59.94
2022-10-12T08:26:16.938Z,60.88
2022-10-12T08:28:45.435Z,60.31
2022-10-12T08:31:17.579Z,60.26
2022-10-12T08:33:46.165Z,58.56
2022-10-12T08:36:15.161Z,58.83
2022-10-12T08:38:45.417Z,59.57
2022-10-12T08:41:29.420Z,60.58
2022-10-12T08:44:12.861Z,62.76
2022-10-12T08:46:42.524Z,66.31
2022-10-12T08:49:16.466Z,68.37
2022-10-12T08:51:50.217Z,68.45
2022-10-12T08:54:22.385Z,69.09
2022-10-12T08:56:54.292Z,68.56
2022-10-12T08:59:23.081Z,67.10
2022-10-12T09:02:03.498Z,65.53
2022-10-12T09:04:48.725Z,63.71
2022-10-12T09:07:22.074Z,61.08
2022-10-12T09:10:07.373Z,60.67
2022-10-12T09:12:50.798Z,58.32
2022-10-12T09:15:26.020Z,55.50
2022-10-12T09:17:57.522Z,55.08
2022-10-12T09:20:30.904Z,54.75
2022-10-12T09:23:22.243Z,54.20
2022-10-12T09:25:51.276Z,52.14
2022-10-12T09:28:28.103Z,51.15
2022-10-12T09:31:11.137Z,51.03
2022-10-12T09:33:46.103Z,50.90
2022-10-12T09:36:21.283Z,50.62
2022-10-12T09:38:51.081Z,52.09
2022-10-12T09:41:23.961Z,50.35
2022-10-12T09:43:56.332Z,48.95
2022-10-12T09:46:40.748Z,48.25
2022-10-12T09:49:10.422Z,49.30
2022-10-12T09:51:38.759Z,51.94
2022-10-12T09:54:08.127Z,51.76
2022-10-12T09:56:45.339Z,50.52
2022-10-12T09:59:30.501Z,53.38
2022-10-12T10:02:05.824Z,55.49
2022-10-12T10:04:35.800Z,56.36
2022-10-12T10:07:25.734Z,57.27
2022-10-12T10:10:16.726Z,56.36
2022-10-12T10:12:51.536Z,57.82
2022-10-12T10:15:24.794Z,58.40
2022-10-12T10:17:56.215Z,58.59
2022-10-12T10:20:32.136Z,59.25
2022-10-12T10:23:01.708Z,58.81
2022-10-12T10:25:30.206Z,59.37
2022-10-12T10:28:21.180Z,59.71
2022-10-12T10:31:00.543Z,58.78
2022-10-12T10:33:28.878Z,58.04
2022-10-12T10:36:04.554Z,57.66
2022-10-12T10:38:49.833Z,57.91
2022-10-12T10:41:19.918Z,57.08
2022-10-12T10:43:50.376Z,58.02
2022-10-12T10:46:25.310Z,58.13
2022-10-12T10:48:58.605Z,55.75
2022-10-12T10:51:49.331Z,55.64
2022-10-12T10:54:28.039Z,56.62
2022-10-12T10:57:05.167Z,55.93
2022-10-12T10:59:49.126Z,57.04
2022-10-12T11:02:33.128Z,58.21
2022-10-12T11:05:10.937Z,58.65
2022-10-12T11:07:49.567Z,58.65
2022-10-12T11:10:25.504Z,58.55
2022-10-12T11:13:01.042Z,57.84
2022-10-12T11:15:36.151Z,58.94
2022-10-12T11:18:15.030Z,57.42
2022-10-12T11:20:54.433Z,57.07
2022-10-12T11:23:34.949Z,58.07
2022-10-12T11:26:13.487Z,58.85
2022-10-12T11:28:42.585Z,60.99
2022-10-12T11:31:21.200Z,58.50
2022-10-12T11:33:51.341Z,58.83
2022-10-12T11:36:22.727Z,59.14
2022-10-12T11:38:57.558Z,58.76
2022-10-12T11:41:35.744Z,59.25
2022-10-12T11:44:14.851Z,58.68
2022-10-12T11:46:48.302Z,58.20
2022-10-12T11:49:25.779Z,59.94
2022-10-12T11:51:58.531Z,59.30
2022-10-12T11:54:33.703Z,59.80
2022-10-12T11:57:08.837Z,61.70
2022-10-12T11:59:44.660Z,60.96
2022-10-12T12:02:20.145Z,61.63
2022-10-12T12:04:50.351Z,61.39
2022-10-12T12:07:56.610Z,62.82
2022-10-12T12:11:07.423Z,61.68
2022-10-12T12:13:35.751Z,61.10
2022-10-12T12:16:32.022Z,61.85
2022-10-12T12:19:39.847Z,61.35
2022-10-12T12:22:28.703Z,61.91
2022-10-12T12:25:18.383Z,61.56
2022-10-12T12:27:51.156Z,60.38
2022-10-12T12:30:35.208Z,58.86
2022-10-12T12:33:08.167Z,58.36
2022-10-12T12:35:40.087Z,57.83
2022-10-12T12:38:28.187Z,57.08
2022-10-12T12:41:04.391Z,56.42
2022-10-12T12:43:58.882Z,56.61
2022-10-12T12:50:30.464Z,56.60
2022-10-12T12:53:07.290Z,55.87
2022-10-12T12:56:01.213Z,56.19
2022-10-12T12:59:05.344Z,56.18
2022-10-12T13:02:03.058Z,56.18
2022-10-12T13:05:14.610Z,56.08
2022-10-12T13:08:04.250Z,55.22
2022-10-12T13:10:48.378Z,56.30
2022-10-12T13:13:38.989Z,56.48
2022-10-12T13:16:36.547Z,57.10
2022-10-12T13:19:11.267Z,56.46
2022-10-12T13:21:41.984Z,56.02
2022-10-12T13:24:16.649Z,55.12
2022-10-12T13:26:49.388Z,55.32
2022-10-12T13:29:24.721Z,55.61
2022-10-12T13:31:59.880Z,55.81
2022-10-12T13:34:32.629Z,55.06
2022-10-12T13:37:03.323Z,55.23
2022-10-12T13:39:36.389Z,55.56
2022-10-12T13:42:07.308Z,55.40
2022-10-12T13:44:37.621Z,54.81
2022-10-12T13:47:24.620Z,55.93
2022-10-12T13:49:53.771Z,56.25
2022-10-12T13:52:31.711Z,56.38
2022-10-12T13:55:01.310Z,56.44
2022-10-12T13:57:36.303Z,56.23
2022-10-12T14:00:18.404Z,56.56
2022-10-12T14:02:58.690Z,55.57
2022-10-12T14:05:30.751Z,54.93
2022-10-12T14:08:04.303Z,54.86
2022-10-12T14:10:36.620Z,53.72
2022-10-12T14:13:06.194Z,53.34
2022-10-12T14:15:37.137Z,53.74
2022-10-12T14:18:36.159Z,53.09
2022-10-12T14:21:22.399Z,52.39
2022-10-12T14:23:54.470Z,52.75
2022-10-12T14:26:30.397Z,52.06
2022-10-12T14:29:00.739Z,52.45
2022-10-12T14:31:52.330Z,52.15
2022-10-12T14:34:43.880Z,51.46
2022-10-12T14:37:32.106Z,51.89
2022-10-12T14:40:00.858Z,51.53
2022-10-12T14:42:34.466Z,52.09
2022-10-12T14:45:06.123Z,52.28
2022-10-12T14:47:39.222Z,52.37
2022-10-12T14:50:10.800Z,52.63
2022-10-12T14:52:45.880Z,52.33
2022-10-12T14:55:18.039Z,52.38
2022-10-12T14:57:47.393Z,52.73
2022-10-12T15:00:17.173Z,53.47
2022-10-12T15:02:45.833Z,53.69
2022-10-12T15:05:18.428Z,53.95
2022-10-12T15:07:46.952Z,53.77
2022-10-12T15:10:16.039Z,54.07
2022-10-12T15:12:44.797Z,54.50
2022-10-12T15:15:29.201Z,54.99
2022-10-12T15:17:57.910Z,55.41
2022-10-12T15:20:29.616Z,55.33
2022-10-12T15:22:58.270Z,55.20
2022-10-12T15:25:33.854Z,55.49
2022-10-12T15:28:02.215Z,55.53
2022-10-12T15:30:30.571Z,56.02
2022-10-12T15:32:58.869Z,55.88
2022-10-12T15:35:32.910Z,56.17
2022-10-12T15:38:01.265Z,56.21
2022-10-12T15:40:31.171Z,56.23
2022-10-12T15:42:59.600Z,56.27
2022-10-12T15:45:32.723Z,56.03
2022-10-12T15:48:01.166Z,56.05
2022-10-12T15:50:38.801Z,56.08
2022-10-12T15:53:10.154Z,56.04
2022-10-12T15:55:38.502Z,56.19
2022-10-12T15:58:06.719Z,56.29
2022-10-12T16:00:35.024Z,56.32
2022-10-12T16:03:03.511Z,56.52
2022-10-12T16:05:35.559Z,56.69
2022-10-12T16:08:05.773Z,56.76
2022-10-12T16:10:37.784Z,56.84
2022-10-12T16:13:07.900Z,56.76
2022-10-12T16:15:37.404Z,57.08
2022-10-12T16:18:06.944Z,57.32
2022-10-12T16:20:39.275Z,57.68
2022-10-12T16:23:10.485Z,57.91
2022-10-12T16:25:38.709Z,58.51
2022-10-12T16:28:07.423Z,58.46
2022-10-12T16:30:35.653Z,58.69
2022-10-12T16:33:04.028Z,58.72
2022-10-12T16:35:32.315Z,58.75
2022-10-12T16:38:02.020Z,58.86
2022-10-12T16:40:30.707Z,58.89
2022-10-12T16:42:58.904Z,59.07
2022-10-12T16:45:27.243Z,59.22
2022-10-12T16:47:55.523Z,59.74
2022-10-12T16:50:25.397Z,59.87
2022-10-12T16:52:54.190Z,60.59
2022-10-12T16:55:23.867Z,60.75
2022-10-12T16:57:52.166Z,60.78
2022-10-12T17:00:22.356Z,60.69
2022-10-12T17:02:52.064Z,60.57
2022-10-12T17:05:23.812Z,60.48
2022-10-12T17:07:52.137Z,60.38
2022-10-12T17:10:20.536Z,60.46
2022-10-12T17:12:50.091Z,60.29
2022-10-12T17:15:18.789Z,60.23
2022-10-12T17:17:47.059Z,60.28
2022-10-12T17:20:15.376Z,60.25
2022-10-12T17:22:43.627Z,60.20
2022-10-12T17:25:11.951Z,60.39
2022-10-12T17:27:40.222Z,60.32
2022-10-12T17:30:11.776Z,60.58
2022-10-12T17:32:41.614Z,60.30
2022-10-12T17:35:10.815Z,60.60
2022-10-12T17:37:39.126Z,60.66
2022-10-12T17:40:11.807Z,60.67
2022-10-12T17:42:40.105Z,60.67
2022-10-12T17:45:11.110Z,60.73
2022-10-12T17:47:39.856Z,61.69
2022-10-12T17:50:09.625Z,62.12
2022-10-12T17:52:40.634Z,62.19
2022-10-12T17:55:29.493Z,62.24
2022-10-12T17:57:57.984Z,62.40
2022-10-12T18:00:28.164Z,63.24
2022-10-12T18:02:56.647Z,63.54
2022-10-12T18:05:25.154Z,63.26
2022-10-12T18:07:53.611Z,63.41
2022-10-12T18:10:23.572Z,63.29
2022-10-12T18:12:54.566Z,63.38
2022-10-12T18:15:23.277Z,63.83
2022-10-12T18:17:54.575Z,64.07
2022-10-12T18:20:22.819Z,63.74
2022-10-12T18:22:51.037Z,64.29
2022-10-12T18:25:19.605Z,64.52
2022-10-12T18:27:50.146Z,64.50
2022-10-12T18:30:18.777Z,64.43
2022-10-12T18:32:47.078Z,64.59
2022-10-12T18:35:16.880Z,64.07
2022-10-12T18:37:45.362Z,64.17
2022-10-12T18:40:14.209Z,64.25
2022-10-12T18:42:42.550Z,64.23
2022-10-12T18:45:11.864Z,64.26
2022-10-12T18:47:40.998Z,64.60
2022-10-12T18:50:10.700Z,64.37
2022-10-12T18:52:40.306Z,64.29
2022-10-12T18:55:09.618Z,64.33
2022-10-12T18:57:40.114Z,64.70
2022-10-12T19:00:11.004Z,64.52
2022-10-12T19:02:39.432Z,64.76
2022-10-12T19:05:08.401Z,65.09
2022-10-12T19:07:36.881Z,65.41
2022-10-12T19:10:08.806Z,65.36
2022-10-12T19:12:37.163Z,65.52
2022-10-12T19:15:06.450Z,65.59
2022-10-12T19:17:34.878Z,65.85
2022-10-12T19:20:03.590Z,65.70
2022-10-12T19:22:32.024Z,66.21
2022-10-12T19:25:00.294Z,66.25
2022-10-12T19:27:30.112Z,66.37
2022-10-12T19:29:58.415Z,66.15
2022-10-12T19:32:26.762Z,65.95
2022-10-12T19:34:55.149Z,65.79
2022-10-12T19:37:23.331Z,65.78
2022-10-12T19:39:51.891Z,65.84
2022-10-12T19:42:20.580Z,66.06
2022-10-12T19:44:50.473Z,66.33
2022-10-12T19:47:18.727Z,66.27
2022-10-12T19:49:47.278Z,66.32
2022-10-12T19:52:15.764Z,66.36
2022-10-12T19:54:44.492Z,66.47
2022-10-12T19:57:12.898Z,66.29
2022-10-12T19:59:41.165Z,66.38
2022-10-12T20:02:12.308Z,66.33
2022-10-12T20:04:40.764Z,66.57
2022-10-12T20:07:09.012Z,66.82
2022-10-12T20:09:37.313Z,66.79
2022-10-12T20:12:05.630Z,66.60
2022-10-12T20:14:34.069Z,66.84
2022-10-12T20:17:02.394Z,67.24
2022-10-12T20:19:31.999Z,67.42
2022-10-12T20:22:00.268Z,67.91
2022-10-12T20:24:28.575Z,67.58
2022-10-12T20:26:56.863Z,67.47
2022-10-12T20:29:25.199Z,67.38
2022-10-12T20:31:53.602Z,68.43
2022-10-12T20:34:21.907Z,68.44
2022-10-12T20:36:51.695Z,68.42
2022-10-12T20:39:20.480Z,68.25
2022-10-12T20:41:48.663Z,68.10
2022-10-12T20:44:16.892Z,67.59
2022-10-12T20:46:56.314Z,68.26
2022-10-12T20:49:24.566Z,69.05
2022-10-12T20:51:54.184Z,68.26
2022-10-12T20:54:23.238Z,68.25
2022-10-12T20:56:52.067Z,67.93
2022-10-12T20:59:20.500Z,67.98
2022-10-12T21:01:49.029Z,68.16
2022-10-12T21:04:17.432Z,68.57
2022-10-12T21:06:45.657Z,69.06
2022-10-12T21:09:17.467Z,69.14
2022-10-12T21:11:45.701Z,69.35
2022-10-12T21:14:14.954Z,69.29
2022-10-12T21:16:43.326Z,69.48
2022-10-12T21:19:16.157Z,69.63
2022-10-12T21:21:44.537Z,70.08
2022-10-12T21:24:12.777Z,70.28
2022-10-12T21:26:43.241Z,70.48
2022-10-12T21:29:11.799Z,70.85
2022-10-12T21:31:40.125Z,71.20
2022-10-12T21:34:11.145Z,71.48
2022-10-12T21:36:39.818Z,71.70
2022-10-12T21:39:12.533Z,71.72
2022-10-12T21:41:42.754Z,72.41
2022-10-12T21:44:12.091Z,72.40
2022-10-12T21:46:40.834Z,73.30
2022-10-12T21:49:09.140Z,73.06
2022-10-12T21:51:38.516Z,73.05
2022-10-12T21:54:08.194Z,73.33
2022-10-12T21:56:38.157Z,73.60
2022-10-12T21:59:08.273Z,74.13
2022-10-12T22:01:39.200Z,74.22
2022-10-12T22:04:11.699Z,74.57
2022-10-12T22:06:40.410Z,74.27
2022-10-12T22:09:13.004Z,74.13
2022-10-12T22:11:42.448Z,74.34
2022-10-12T22:14:17.690Z,74.44
2022-10-12T22:16:46.085Z,74.48
2022-10-12T22:19:18.782Z,74.25
2022-10-12T22:21:48.403Z,73.94
2022-10-12T22:24:16.891Z,74.00
2022-10-12T22:26:45.710Z,73.66
2022-10-12T22:29:15.419Z,73.54
2022-10-12T22:31:44.543Z,73.32
2022-10-12T22:34:14.502Z,73.05
2022-10-12T22:36:44.088Z,72.90
2022-10-12T22:39:12.319Z,73.00
2022-10-12T22:41:42.289Z,73.79
2022-10-12T22:44:10.625Z,73.95
2022-10-12T22:46:40.189Z,74.13
2022-10-12T22:49:08.471Z,74.11
2022-10-12T22:51:40.037Z,74.42
2022-10-12T22:54:08.899Z,74.56
2022-10-12T22:56:40.794Z,74.71
2022-10-12T22:59:11.419Z,74.64
2022-10-12T23:01:41.065Z,74.64
2022-10-12T23:04:09.401Z,74.43
2022-10-12T23:06:37.639Z,74.65
2022-10-12T23:09:06.304Z,74.62
2022-10-12T23:11:34.557Z,74.64
2022-10-12T23:14:03.053Z,74.54
2022-10-12T23:16:33.961Z,75.18
2022-10-12T23:19:06.696Z,75.33
2022-10-12T23:21:35.891Z,75.62
2022-10-12T23:24:05.857Z,75.75
2022-10-12T23:26:34.655Z,75.89
2022-10-12T23:29:03.324Z,76.12
2022-10-12T23:31:32.243Z,76.38
2022-10-12T23:34:05.304Z,76.58
2022-10-12T23:36:35.461Z,77.00
2022-10-12T23:39:06.310Z,77.40
2022-10-12T23:41:34.557Z,77.66
2022-10-12T23:44:02.754Z,77.76
2022-10-12T23:46:31.142Z,78.14
2022-10-12T23:49:00.481Z,78.40
2022-10-12T23:51:30.058Z,78.72
2022-10-12T23:53:58.436Z,79.26
2022-10-12T23:56:26.942Z,79.40
2022-10-12T23:58:55.211Z,79.62
